sensor_id;sensor_type;location;lat;lon;timestamp;P1;durP1;ratioP1;P2;durP2;ratioP2
50988;SDS011;37008;52.210;21.112;2023-02-26T00:02:12;6.60;;;4.18;;
50988;SDS011;37008;52.210;21.112;2023-02-26T00:04:37;7.60;;;5.00;;
50988;SDS011;37008;52.210;21.112;2023-02-26T00:07:03;6.05;;;3.95;;
50988;SDS011;37008;52.210;21.112;2023-02-26T00:09:30;5.65;;;4.10;;
50988;SDS011;37008;52.210;21.112;2023-02-26T00:11:56;5.72;;;4.30;;
50988;SDS011;37008;52.210;21.112;2023-02-26T00:14:22;6.68;;;4.03;;
50988;SDS011;37008;52.210;21.112;2023-02-26T00:17:31;5.47;;;4.43;;
50988;SDS011;37008;52.210;21.112;2023-02-26T00:19:58;4.97;;;3.20;;
50988;SDS011;37008;52.210;21.112;2023-02-26T00:22:24;5.97;;;3.40;;
50988;SDS011;37008;52.210;21.112;2023-02-26T00:24:50;4.30;;;2.95;;
50988;SDS011;37008;52.210;21.112;2023-02-26T00:27:16;4.78;;;3.47;;
50988;SDS011;37008;52.210;21.112;2023-02-26T00:29:42;2.72;;;1.70;;
50988;SDS011;37008;52.210;21.112;2023-02-26T00:32:07;7.05;;;4.18;;
50988;SDS011;37008;52.210;21.112;2023-02-26T00:34:34;6.90;;;4.30;;
50988;SDS011;37008;52.210;21.112;2023-02-26T00:42:22;9.52;;;5.00;;
50988;SDS011;37008;52.210;21.112;2023-02-26T00:44:48;7.90;;;4.50;;
50988;SDS011;37008;52.210;21.112;2023-02-26T00:52:47;4.53;;;3.03;;
50988;SDS011;37008;52.210;21.112;2023-02-26T00:55:24;5.07;;;3.17;;
50988;SDS011;37008;52.210;21.112;2023-02-26T00:57:50;3.70;;;2.55;;
50988;SDS011;37008;52.210;21.112;2023-02-26T01:00:15;3.55;;;2.42;;
50988;SDS011;37008;52.210;21.112;2023-02-26T01:02:42;4.57;;;3.00;;
50988;SDS011;37008;52.210;21.112;2023-02-26T01:05:08;3.28;;;2.20;;
50988;SDS011;37008;52.210;21.112;2023-02-26T01:10:18;5.32;;;2.15;;
50988;SDS011;37008;52.210;21.112;2023-02-26T01:12:45;4.22;;;3.28;;
50988;SDS011;37008;52.210;21.112;2023-02-26T01:15:11;5.40;;;3.60;;
50988;SDS011;37008;52.210;21.112;2023-02-26T01:17:48;6.18;;;3.55;;
50988;SDS011;37008;52.210;21.112;2023-02-26T01:20:21;5.93;;;3.28;;
50988;SDS011;37008;52.210;21.112;2023-02-26T01:25:15;4.88;;;3.30;;
50988;SDS011;37008;52.210;21.112;2023-02-26T01:27:46;3.95;;;2.97;;
50988;SDS011;37008;52.210;21.112;2023-02-26T01:30:12;3.97;;;2.70;;
50988;SDS011;37008;52.210;21.112;2023-02-26T01:32:42;3.45;;;2.72;;
50988;SDS011;37008;52.210;21.112;2023-02-26T01:35:22;3.30;;;2.58;;
50988;SDS011;37008;52.210;21.112;2023-02-26T01:38:17;5.22;;;3.05;;
50988;SDS011;37008;52.210;21.112;2023-02-26T01:41:04;4.88;;;2.88;;
50988;SDS011;37008;52.210;21.112;2023-02-26T01:43:36;3.90;;;2.85;;
50988;SDS011;37008;52.210;21.112;2023-02-26T01:46:15;5.75;;;3.75;;
50988;SDS011;37008;52.210;21.112;2023-02-26T01:48:51;5.07;;;3.00;;
50988;SDS011;37008;52.210;21.112;2023-02-26T01:51:38;4.25;;;3.20;;
50988;SDS011;37008;52.210;21.112;2023-02-26T01:54:07;4.63;;;3.13;;
50988;SDS011;37008;52.210;21.112;2023-02-26T01:56:33;4.95;;;3.42;;
50988;SDS011;37008;52.210;21.112;2023-02-26T01:58:59;4.43;;;3.45;;
50988;SDS011;37008;52.210;21.112;2023-02-26T02:01:29;4.45;;;2.65;;
50988;SDS011;37008;52.210;21.112;2023-02-26T02:03:57;4.72;;;2.78;;
50988;SDS011;37008;52.210;21.112;2023-02-26T02:06:23;4.13;;;3.60;;
50988;SDS011;37008;52.210;21.112;2023-02-26T02:08:52;4.90;;;3.00;;
50988;SDS011;37008;52.210;21.112;2023-02-26T02:11:18;6.00;;;3.38;;
50988;SDS011;37008;52.210;21.112;2023-02-26T02:13:49;4.43;;;2.75;;
50988;SDS011;37008;52.210;21.112;2023-02-26T02:25:25;2.80;;;1.85;;
50988;SDS011;37008;52.210;21.112;2023-02-26T02:33:41;5.53;;;2.88;;
50988;SDS011;37008;52.210;21.112;2023-02-26T02:36:35;4.95;;;3.65;;
50988;SDS011;37008;52.210;21.112;2023-02-26T02:39:22;5.28;;;3.05;;
50988;SDS011;37008;52.210;21.112;2023-02-26T02:41:55;3.70;;;2.65;;
50988;SDS011;37008;52.210;21.112;2023-02-26T02:44:28;4.88;;;3.10;;
50988;SDS011;37008;52.210;21.112;2023-02-26T02:46:58;4.78;;;3.50;;
50988;SDS011;37008;52.210;21.112;2023-02-26T02:49:33;4.85;;;3.38;;
50988;SDS011;37008;52.210;21.112;2023-02-26T02:52:13;4.45;;;3.30;;
50988;SDS011;37008;52.210;21.112;2023-02-26T02:55:01;5.40;;;3.20;;
50988;SDS011;37008;52.210;21.112;2023-02-26T02:57:38;5.82;;;3.63;;
50988;SDS011;37008;52.210;21.112;2023-02-26T03:00:10;4.13;;;2.88;;
50988;SDS011;37008;52.210;21.112;2023-02-26T03:05:11;5.88;;;3.80;;
50988;SDS011;37008;52.210;21.112;2023-02-26T03:07:40;4.75;;;3.30;;
50988;SDS011;37008;52.210;21.112;2023-02-26T03:10:11;5.30;;;3.85;;
50988;SDS011;37008;52.210;21.112;2023-02-26T03:12:36;5.30;;;3.40;;
50988;SDS011;37008;52.210;21.112;2023-02-26T03:15:02;4.63;;;3.63;;
50988;SDS011;37008;52.210;21.112;2023-02-26T03:17:35;4.72;;;3.70;;
50988;SDS011;37008;52.210;21.112;2023-02-26T03:20:20;3.78;;;2.72;;
50988;SDS011;37008;52.210;21.112;2023-02-26T03:30:44;4.35;;;3.40;;
50988;SDS011;37008;52.210;21.112;2023-02-26T03:33:37;4.82;;;3.38;;
50988;SDS011;37008;52.210;21.112;2023-02-26T03:38:48;4.75;;;3.42;;
50988;SDS011;37008;52.210;21.112;2023-02-26T03:41:21;4.85;;;3.70;;
50988;SDS011;37008;52.210;21.112;2023-02-26T03:44:41;5.22;;;3.65;;
50988;SDS011;37008;52.210;21.112;2023-02-26T03:46:51;3.17;;;1.95;;
50988;SDS011;37008;52.210;21.112;2023-02-26T03:49:23;3.55;;;2.53;;
50988;SDS011;37008;52.210;21.112;2023-02-26T03:51:54;5.57;;;2.22;;
50988;SDS011;37008;52.210;21.112;2023-02-26T03:54:34;3.00;;;2.20;;
50988;SDS011;37008;52.210;21.112;2023-02-26T03:57:05;2.67;;;1.90;;
50988;SDS011;37008;52.210;21.112;2023-02-26T03:59:31;3.10;;;2.05;;
50988;SDS011;37008;52.210;21.112;2023-02-26T04:02:46;2.95;;;1.70;;
50988;SDS011;37008;52.210;21.112;2023-02-26T04:04:49;2.53;;;1.65;;
50988;SDS011;37008;52.210;21.112;2023-02-26T04:07:16;2.70;;;1.65;;
50988;SDS011;37008;52.210;21.112;2023-02-26T04:09:43;2.85;;;1.80;;
50988;SDS011;37008;52.210;21.112;2023-02-26T04:12:11;1.98;;;1.30;;
50988;SDS011;37008;52.210;21.112;2023-02-26T04:14:37;3.30;;;1.92;;
50988;SDS011;37008;52.210;21.112;2023-02-26T04:17:03;2.78;;;2.20;;
50988;SDS011;37008;52.210;21.112;2023-02-26T04:19:29;2.22;;;1.42;;
50988;SDS011;37008;52.210;21.112;2023-02-26T04:21:55;2.22;;;1.55;;
50988;SDS011;37008;52.210;21.112;2023-02-26T04:24:20;2.13;;;1.88;;
50988;SDS011;37008;52.210;21.112;2023-02-26T04:26:46;2.80;;;2.10;;
50988;SDS011;37008;52.210;21.112;2023-02-26T04:29:12;3.10;;;2.35;;
50988;SDS011;37008;52.210;21.112;2023-02-26T04:31:37;3.50;;;2.50;;
50988;SDS011;37008;52.210;21.112;2023-02-26T04:34:03;3.58;;;2.60;;
50988;SDS011;37008;52.210;21.112;2023-02-26T04:36:29;4.53;;;2.35;;
50988;SDS011;37008;52.210;21.112;2023-02-26T04:38:55;3.10;;;2.17;;
50988;SDS011;37008;52.210;21.112;2023-02-26T04:41:20;3.55;;;2.50;;
50988;SDS011;37008;52.210;21.112;2023-02-26T04:43:46;3.53;;;2.65;;
50988;SDS011;37008;52.210;21.112;2023-02-26T04:46:12;2.90;;;2.15;;
50988;SDS011;37008;52.210;21.112;2023-02-26T04:48:37;3.53;;;2.55;;
50988;SDS011;37008;52.210;21.112;2023-02-26T04:51:03;5.28;;;2.58;;
50988;SDS011;37008;52.210;21.112;2023-02-26T04:53:29;3.72;;;2.63;;
50988;SDS011;37008;52.210;21.112;2023-02-26T04:55:55;3.85;;;2.80;;
50988;SDS011;37008;52.210;21.112;2023-02-26T04:58:20;4.07;;;2.65;;
50988;SDS011;37008;52.210;21.112;2023-02-26T05:00:47;3.47;;;2.60;;
50988;SDS011;37008;52.210;21.112;2023-02-26T05:03:14;3.17;;;2.55;;
50988;SDS011;37008;52.210;21.112;2023-02-26T05:05:40;3.70;;;2.83;;
50988;SDS011;37008;52.210;21.112;2023-02-26T05:08:06;6.25;;;2.50;;
50988;SDS011;37008;52.210;21.112;2023-02-26T05:10:32;4.72;;;2.90;;
50988;SDS011;37008;52.210;21.112;2023-02-26T05:12:58;3.20;;;1.83;;
50988;SDS011;37008;52.210;21.112;2023-02-26T05:15:23;3.63;;;2.10;;
50988;SDS011;37008;52.210;21.112;2023-02-26T05:17:49;3.20;;;2.08;;
50988;SDS011;37008;52.210;21.112;2023-02-26T05:20:15;3.00;;;2.20;;
50988;SDS011;37008;52.210;21.112;2023-02-26T05:22:41;3.42;;;2.35;;
50988;SDS011;37008;52.210;21.112;2023-02-26T05:25:07;5.00;;;2.20;;
50988;SDS011;37008;52.210;21.112;2023-02-26T05:27:34;2.95;;;1.90;;
50988;SDS011;37008;52.210;21.112;2023-02-26T05:29:59;3.45;;;2.25;;
50988;SDS011;37008;52.210;21.112;2023-02-26T05:32:25;3.75;;;2.08;;
50988;SDS011;37008;52.210;21.112;2023-02-26T05:34:51;3.80;;;2.15;;
50988;SDS011;37008;52.210;21.112;2023-02-26T05:37:17;3.58;;;2.22;;
50988;SDS011;37008;52.210;21.112;2023-02-26T05:39:42;3.88;;;2.42;;
50988;SDS011;37008;52.210;21.112;2023-02-26T05:42:08;3.22;;;2.30;;
50988;SDS011;37008;52.210;21.112;2023-02-26T05:44:33;3.30;;;2.10;;
50988;SDS011;37008;52.210;21.112;2023-02-26T05:47:00;5.10;;;2.70;;
50988;SDS011;37008;52.210;21.112;2023-02-26T05:49:26;3.22;;;2.15;;
50988;SDS011;37008;52.210;21.112;2023-02-26T05:51:52;4.20;;;2.22;;
50988;SDS011;37008;52.210;21.112;2023-02-26T05:54:18;3.83;;;3.00;;
50988;SDS011;37008;52.210;21.112;2023-02-26T05:56:44;3.17;;;2.10;;
50988;SDS011;37008;52.210;21.112;2023-02-26T05:59:09;3.33;;;2.15;;
50988;SDS011;37008;52.210;21.112;2023-02-26T06:01:35;3.38;;;2.40;;
50988;SDS011;37008;52.210;21.112;2023-02-26T06:04:01;4.60;;;2.35;;
50988;SDS011;37008;52.210;21.112;2023-02-26T06:06:28;4.70;;;1.70;;
50988;SDS011;37008;52.210;21.112;2023-02-26T06:08:54;3.75;;;1.20;;
50988;SDS011;37008;52.210;21.112;2023-02-26T06:11:19;3.03;;;1.73;;
50988;SDS011;37008;52.210;21.112;2023-02-26T06:13:45;2.78;;;1.90;;
50988;SDS011;37008;52.210;21.112;2023-02-26T06:16:11;2.67;;;1.70;;
50988;SDS011;37008;52.210;21.112;2023-02-26T06:18:36;2.67;;;1.55;;
50988;SDS011;37008;52.210;21.112;2023-02-26T06:21:02;3.58;;;1.52;;
50988;SDS011;37008;52.210;21.112;2023-02-26T06:23:28;4.32;;;1.77;;
50988;SDS011;37008;52.210;21.112;2023-02-26T06:25:53;4.63;;;1.75;;
50988;SDS011;37008;52.210;21.112;2023-02-26T06:28:19;2.92;;;1.60;;
50988;SDS011;37008;52.210;21.112;2023-02-26T06:30:45;3.42;;;1.42;;
50988;SDS011;37008;52.210;21.112;2023-02-26T06:33:11;2.78;;;1.60;;
50988;SDS011;37008;52.210;21.112;2023-02-26T06:35:37;6.38;;;2.33;;
50988;SDS011;37008;52.210;21.112;2023-02-26T06:38:02;3.50;;;1.80;;
50988;SDS011;37008;52.210;21.112;2023-02-26T06:40:28;3.65;;;1.85;;
50988;SDS011;37008;52.210;21.112;2023-02-26T06:42:54;2.47;;;1.40;;
50988;SDS011;37008;52.210;21.112;2023-02-26T06:45:20;2.47;;;1.50;;
50988;SDS011;37008;52.210;21.112;2023-02-26T06:47:47;1.90;;;1.50;;
50988;SDS011;37008;52.210;21.112;2023-02-26T06:50:12;3.17;;;1.75;;
50988;SDS011;37008;52.210;21.112;2023-02-26T06:52:38;2.42;;;1.40;;
50988;SDS011;37008;52.210;21.112;2023-02-26T06:55:04;3.47;;;1.70;;
50988;SDS011;37008;52.210;21.112;2023-02-26T06:57:30;4.32;;;1.80;;
50988;SDS011;37008;52.210;21.112;2023-02-26T06:59:56;3.05;;;1.67;;
50988;SDS011;37008;52.210;21.112;2023-02-26T07:02:23;3.60;;;2.00;;
50988;SDS011;37008;52.210;21.112;2023-02-26T07:04:49;4.32;;;1.48;;
50988;SDS011;37008;52.210;21.112;2023-02-26T07:07:14;3.55;;;1.90;;
50988;SDS011;37008;52.210;21.112;2023-02-26T07:09:40;3.33;;;1.58;;
50988;SDS011;37008;52.210;21.112;2023-02-26T07:12:06;2.38;;;1.67;;
50988;SDS011;37008;52.210;21.112;2023-02-26T07:14:32;2.25;;;1.08;;
50988;SDS011;37008;52.210;21.112;2023-02-26T07:16:58;4.93;;;2.30;;
50988;SDS011;37008;52.210;21.112;2023-02-26T07:19:24;4.22;;;1.40;;
50988;SDS011;37008;52.210;21.112;2023-02-26T07:21:50;2.90;;;1.73;;
50988;SDS011;37008;52.210;21.112;2023-02-26T07:24:16;3.35;;;1.90;;
50988;SDS011;37008;52.210;21.112;2023-02-26T07:26:41;2.97;;;1.75;;
50988;SDS011;37008;52.210;21.112;2023-02-26T07:29:07;3.22;;;1.67;;
50988;SDS011;37008;52.210;21.112;2023-02-26T07:31:33;3.17;;;1.88;;
50988;SDS011;37008;52.210;21.112;2023-02-26T07:33:59;4.72;;;2.33;;
50988;SDS011;37008;52.210;21.112;2023-02-26T07:36:24;3.67;;;1.77;;
50988;SDS011;37008;52.210;21.112;2023-02-26T07:38:50;2.38;;;1.60;;
50988;SDS011;37008;52.210;21.112;2023-02-26T07:41:15;3.95;;;1.70;;
50988;SDS011;37008;52.210;21.112;2023-02-26T07:43:41;3.60;;;1.70;;
50988;SDS011;37008;52.210;21.112;2023-02-26T07:46:07;3.58;;;1.50;;
50988;SDS011;37008;52.210;21.112;2023-02-26T07:48:33;2.80;;;1.70;;
50988;SDS011;37008;52.210;21.112;2023-02-26T07:50:59;2.83;;;1.60;;
50988;SDS011;37008;52.210;21.112;2023-02-26T07:53:24;2.35;;;1.60;;
50988;SDS011;37008;52.210;21.112;2023-02-26T07:55:50;2.53;;;1.50;;
50988;SDS011;37008;52.210;21.112;2023-02-26T07:58:16;2.50;;;1.65;;
50988;SDS011;37008;52.210;21.112;2023-02-26T08:00:42;1.73;;;1.27;;
50988;SDS011;37008;52.210;21.112;2023-02-26T08:03:07;2.60;;;1.40;;
50988;SDS011;37008;52.210;21.112;2023-02-26T08:05:33;2.13;;;1.55;;
50988;SDS011;37008;52.210;21.112;2023-02-26T08:07:59;1.48;;;1.23;;
50988;SDS011;37008;52.210;21.112;2023-02-26T08:10:26;2.72;;;1.58;;
50988;SDS011;37008;52.210;21.112;2023-02-26T08:12:51;2.40;;;1.60;;
50988;SDS011;37008;52.210;21.112;2023-02-26T08:15:17;4.40;;;1.75;;
50988;SDS011;37008;52.210;21.112;2023-02-26T08:17:43;4.03;;;1.92;;
50988;SDS011;37008;52.210;21.112;2023-02-26T08:20:09;2.88;;;2.03;;
50988;SDS011;37008;52.210;21.112;2023-02-26T08:22:35;3.03;;;1.50;;
50988;SDS011;37008;52.210;21.112;2023-02-26T08:25:01;3.30;;;1.95;;
50988;SDS011;37008;52.210;21.112;2023-02-26T08:27:27;3.00;;;1.98;;
50988;SDS011;37008;52.210;21.112;2023-02-26T08:29:53;2.35;;;1.70;;
50988;SDS011;37008;52.210;21.112;2023-02-26T08:32:19;3.00;;;1.80;;
50988;SDS011;37008;52.210;21.112;2023-02-26T08:34:46;3.25;;;1.83;;
50988;SDS011;37008;52.210;21.112;2023-02-26T08:37:12;2.17;;;1.50;;
50988;SDS011;37008;52.210;21.112;2023-02-26T08:39:38;2.20;;;1.50;;
50988;SDS011;37008;52.210;21.112;2023-02-26T08:42:05;2.33;;;1.65;;
50988;SDS011;37008;52.210;21.112;2023-02-26T08:44:31;2.83;;;1.70;;
50988;SDS011;37008;52.210;21.112;2023-02-26T08:46:57;3.70;;;2.10;;
50988;SDS011;37008;52.210;21.112;2023-02-26T08:49:22;2.55;;;1.38;;
50988;SDS011;37008;52.210;21.112;2023-02-26T08:51:48;4.40;;;1.40;;
50988;SDS011;37008;52.210;21.112;2023-02-26T08:54:13;2.55;;;1.80;;
50988;SDS011;37008;52.210;21.112;2023-02-26T08:56:39;2.65;;;1.52;;
50988;SDS011;37008;52.210;21.112;2023-02-26T08:59:05;1.83;;;1.45;;
50988;SDS011;37008;52.210;21.112;2023-02-26T09:01:31;2.70;;;1.52;;
50988;SDS011;37008;52.210;21.112;2023-02-26T09:03:56;3.25;;;1.80;;
50988;SDS011;37008;52.210;21.112;2023-02-26T09:06:22;4.13;;;1.60;;
50988;SDS011;37008;52.210;21.112;2023-02-26T09:08:48;2.78;;;1.92;;
50988;SDS011;37008;52.210;21.112;2023-02-26T09:11:13;3.72;;;1.75;;
50988;SDS011;37008;52.210;21.112;2023-02-26T09:13:39;4.00;;;1.88;;
50988;SDS011;37008;52.210;21.112;2023-02-26T09:16:05;2.10;;;1.60;;
50988;SDS011;37008;52.210;21.112;2023-02-26T09:18:31;3.53;;;1.25;;
50988;SDS011;37008;52.210;21.112;2023-02-26T09:20:57;1.77;;;1.27;;
50988;SDS011;37008;52.210;21.112;2023-02-26T09:23:23;1.77;;;1.20;;
50988;SDS011;37008;52.210;21.112;2023-02-26T09:25:52;2.17;;;1.33;;
50988;SDS011;37008;52.210;21.112;2023-02-26T09:28:19;1.67;;;0.95;;
50988;SDS011;37008;52.210;21.112;2023-02-26T09:30:45;2.65;;;1.10;;
50988;SDS011;37008;52.210;21.112;2023-02-26T09:33:11;2.85;;;1.13;;
50988;SDS011;37008;52.210;21.112;2023-02-26T09:35:37;1.75;;;1.20;;
50988;SDS011;37008;52.210;21.112;2023-02-26T09:38:03;2.35;;;1.50;;
50988;SDS011;37008;52.210;21.112;2023-02-26T09:43:07;3.03;;;2.10;;
50988;SDS011;37008;52.210;21.112;2023-02-26T09:45:36;1.10;;;0.70;;
50988;SDS011;37008;52.210;21.112;2023-02-26T09:48:05;3.25;;;1.80;;
50988;SDS011;37008;52.210;21.112;2023-02-26T09:53:27;2.40;;;1.60;;
50988;SDS011;37008;52.210;21.112;2023-02-26T09:55:57;3.00;;;1.80;;
50988;SDS011;37008;52.210;21.112;2023-02-26T09:58:45;3.40;;;1.80;;
50988;SDS011;37008;52.210;21.112;2023-02-26T10:01:17;2.70;;;1.73;;
50988;SDS011;37008;52.210;21.112;2023-02-26T10:04:17;2.53;;;1.65;;
50988;SDS011;37008;52.210;21.112;2023-02-26T10:06:55;3.22;;;1.73;;
50988;SDS011;37008;52.210;21.112;2023-02-26T10:09:32;3.67;;;2.10;;
50988;SDS011;37008;52.210;21.112;2023-02-26T10:12:14;3.08;;;1.75;;
50988;SDS011;37008;52.210;21.112;2023-02-26T10:14:44;5.45;;;2.30;;
50988;SDS011;37008;52.210;21.112;2023-02-26T10:19:53;1.25;;;0.82;;
50988;SDS011;37008;52.210;21.112;2023-02-26T10:22:24;3.40;;;2.15;;
50988;SDS011;37008;52.210;21.112;2023-02-26T10:25:16;5.80;;;2.38;;
50988;SDS011;37008;52.210;21.112;2023-02-26T10:27:52;4.30;;;2.50;;
50988;SDS011;37008;52.210;21.112;2023-02-26T10:30:32;4.05;;;2.10;;
50988;SDS011;37008;52.210;21.112;2023-02-26T10:35:52;6.00;;;2.80;;
50988;SDS011;37008;52.210;21.112;2023-02-26T10:38:27;5.03;;;3.00;;
50988;SDS011;37008;52.210;21.112;2023-02-26T10:40:59;5.03;;;2.13;;
50988;SDS011;37008;52.210;21.112;2023-02-26T10:43:41;5.28;;;2.33;;
50988;SDS011;37008;52.210;21.112;2023-02-26T10:46:18;2.90;;;1.55;;
50988;SDS011;37008;52.210;21.112;2023-02-26T10:51:50;5.68;;;2.97;;
50988;SDS011;37008;52.210;21.112;2023-02-26T10:54:23;6.22;;;3.38;;
50988;SDS011;37008;52.210;21.112;2023-02-26T10:56:55;4.70;;;2.85;;
50988;SDS011;37008;52.210;21.112;2023-02-26T10:59:21;4.10;;;2.83;;
50988;SDS011;37008;52.210;21.112;2023-02-26T11:01:47;4.20;;;2.50;;
50988;SDS011;37008;52.210;21.112;2023-02-26T11:04:16;4.82;;;2.08;;
50988;SDS011;37008;52.210;21.112;2023-02-26T11:06:52;5.25;;;2.70;;
50988;SDS011;37008;52.210;21.112;2023-02-26T11:09:21;3.75;;;1.83;;
50988;SDS011;37008;52.210;21.112;2023-02-26T11:11:53;2.75;;;1.90;;
50988;SDS011;37008;52.210;21.112;2023-02-26T11:14:25;3.78;;;1.83;;
50988;SDS011;37008;52.210;21.112;2023-02-26T11:16:52;3.58;;;2.08;;
50988;SDS011;37008;52.210;21.112;2023-02-26T11:19:26;3.42;;;1.67;;
50988;SDS011;37008;52.210;21.112;2023-02-26T11:21:55;2.67;;;1.67;;
50988;SDS011;37008;52.210;21.112;2023-02-26T11:24:44;3.35;;;1.85;;
50988;SDS011;37008;52.210;21.112;2023-02-26T11:27:16;3.33;;;1.63;;
50988;SDS011;37008;52.210;21.112;2023-02-26T11:29:48;2.70;;;1.45;;
50988;SDS011;37008;52.210;21.112;2023-02-26T11:32:28;4.43;;;1.90;;
50988;SDS011;37008;52.210;21.112;2023-02-26T11:34:55;2.63;;;1.55;;
50988;SDS011;37008;52.210;21.112;2023-02-26T11:37:32;2.47;;;1.40;;
50988;SDS011;37008;52.210;21.112;2023-02-26T11:40:12;2.22;;;1.55;;
50988;SDS011;37008;52.210;21.112;2023-02-26T11:42:52;3.47;;;1.80;;
50988;SDS011;37008;52.210;21.112;2023-02-26T11:45:19;3.88;;;2.28;;
50988;SDS011;37008;52.210;21.112;2023-02-26T11:47:53;2.63;;;1.50;;
50988;SDS011;37008;52.210;21.112;2023-02-26T11:50:26;2.95;;;1.45;;
50988;SDS011;37008;52.210;21.112;2023-02-26T11:53:03;2.85;;;1.95;;
50988;SDS011;37008;52.210;21.112;2023-02-26T11:55:35;4.85;;;2.10;;
50988;SDS011;37008;52.210;21.112;2023-02-26T11:58:04;3.67;;;1.52;;
50988;SDS011;37008;52.210;21.112;2023-02-26T12:00:41;3.17;;;1.80;;
50988;SDS011;37008;52.210;21.112;2023-02-26T12:03:09;3.70;;;1.83;;
50988;SDS011;37008;52.210;21.112;2023-02-26T12:05:47;3.42;;;1.92;;
50988;SDS011;37008;52.210;21.112;2023-02-26T12:08:23;4.05;;;1.70;;
50988;SDS011;37008;52.210;21.112;2023-02-26T12:11:07;1.75;;;1.10;;
50988;SDS011;37008;52.210;21.112;2023-02-26T12:16:53;3.70;;;2.00;;
50988;SDS011;37008;52.210;21.112;2023-02-26T12:41:52;3.15;;;2.08;;
50988;SDS011;37008;52.210;21.112;2023-02-26T12:45:19;4.05;;;2.53;;
50988;SDS011;37008;52.210;21.112;2023-02-26T12:57:52;3.38;;;2.05;;
50988;SDS011;37008;52.210;21.112;2023-02-26T13:00:26;3.17;;;1.42;;
50988;SDS011;37008;52.210;21.112;2023-02-26T13:03:19;3.03;;;1.48;;
50988;SDS011;37008;52.210;21.112;2023-02-26T13:06:19;4.70;;;2.00;;
50988;SDS011;37008;52.210;21.112;2023-02-26T13:15:13;1.95;;;1.17;;
50988;SDS011;37008;52.210;21.112;2023-02-26T13:18:30;3.60;;;1.38;;
50988;SDS011;37008;52.210;21.112;2023-02-26T13:20:36;5.50;;;1.50;;
50988;SDS011;37008;52.210;21.112;2023-02-26T13:23:10;3.67;;;1.38;;
50988;SDS011;37008;52.210;21.112;2023-02-26T13:31:07;3.90;;;1.70;;
50988;SDS011;37008;52.210;21.112;2023-02-26T13:33:37;4.13;;;1.55;;
50988;SDS011;37008;52.210;21.112;2023-02-26T13:36:04;2.92;;;1.40;;
50988;SDS011;37008;52.210;21.112;2023-02-26T13:41:15;2.97;;;1.05;;
50988;SDS011;37008;52.210;21.112;2023-02-26T13:49:31;2.70;;;1.55;;
50988;SDS011;37008;52.210;21.112;2023-02-26T13:52:23;4.93;;;1.65;;
50988;SDS011;37008;52.210;21.112;2023-02-26T13:54:50;2.97;;;1.50;;
50988;SDS011;37008;52.210;21.112;2023-02-26T14:00:56;2.67;;;1.50;;
50988;SDS011;37008;52.210;21.112;2023-02-26T14:03:10;5.32;;;1.50;;
50988;SDS011;37008;52.210;21.112;2023-02-26T14:05:55;5.25;;;1.83;;
50988;SDS011;37008;52.210;21.112;2023-02-26T14:11:04;5.78;;;2.40;;
50988;SDS011;37008;52.210;21.112;2023-02-26T14:19:40;5.20;;;1.95;;
50988;SDS011;37008;52.210;21.112;2023-02-26T14:22:18;4.05;;;1.60;;
50988;SDS011;37008;52.210;21.112;2023-02-26T14:27:37;4.00;;;1.83;;
50988;SDS011;37008;52.210;21.112;2023-02-26T14:32:34;4.20;;;1.58;;
50988;SDS011;37008;52.210;21.112;2023-02-26T14:35:12;4.97;;;2.13;;
50988;SDS011;37008;52.210;21.112;2023-02-26T14:40:21;3.42;;;1.52;;
50988;SDS011;37008;52.210;21.112;2023-02-26T14:42:53;4.22;;;1.75;;
50988;SDS011;37008;52.210;21.112;2023-02-26T14:45:29;6.47;;;1.90;;
50988;SDS011;37008;52.210;21.112;2023-02-26T14:48:00;5.50;;;2.03;;
50988;SDS011;37008;52.210;21.112;2023-02-26T14:50:31;5.82;;;2.45;;
50988;SDS011;37008;52.210;21.112;2023-02-26T14:56:10;6.10;;;2.10;;
50988;SDS011;37008;52.210;21.112;2023-02-26T15:01:45;6.50;;;2.38;;
50988;SDS011;37008;52.210;21.112;2023-02-26T15:23:46;3.22;;;1.60;;
50988;SDS011;37008;52.210;21.112;2023-02-26T15:26:26;6.82;;;2.38;;
50988;SDS011;37008;52.210;21.112;2023-02-26T15:28:54;8.73;;;2.35;;
50988;SDS011;37008;52.210;21.112;2023-02-26T15:31:26;5.55;;;2.67;;
50988;SDS011;37008;52.210;21.112;2023-02-26T15:33:59;6.65;;;2.50;;
50988;SDS011;37008;52.210;21.112;2023-02-26T15:36:27;4.60;;;2.22;;
50988;SDS011;37008;52.210;21.112;2023-02-26T15:38:55;4.57;;;2.22;;
50988;SDS011;37008;52.210;21.112;2023-02-26T15:41:27;9.55;;;2.55;;
50988;SDS011;37008;52.210;21.112;2023-02-26T15:43:56;6.10;;;2.67;;
50988;SDS011;37008;52.210;21.112;2023-02-26T15:46:36;6.78;;;2.92;;
50988;SDS011;37008;52.210;21.112;2023-02-26T15:49:05;6.88;;;2.60;;
50988;SDS011;37008;52.210;21.112;2023-02-26T15:51:35;6.22;;;2.85;;
50988;SDS011;37008;52.210;21.112;2023-02-26T15:54:02;5.72;;;2.30;;
50988;SDS011;37008;52.210;21.112;2023-02-26T15:56:32;12.10;;;5.43;;
50988;SDS011;37008;52.210;21.112;2023-02-26T15:59:01;11.68;;;5.68;;
50988;SDS011;37008;52.210;21.112;2023-02-26T16:01:32;11.73;;;4.88;;
50988;SDS011;37008;52.210;21.112;2023-02-26T16:04:02;17.23;;;8.63;;
50988;SDS011;37008;52.210;21.112;2023-02-26T16:08:59;12.85;;;6.40;;
50988;SDS011;37008;52.210;21.112;2023-02-26T16:11:27;11.82;;;4.35;;
50988;SDS011;37008;52.210;21.112;2023-02-26T16:13:57;8.60;;;4.78;;
50988;SDS011;37008;52.210;21.112;2023-02-26T16:16:25;9.80;;;5.05;;
50988;SDS011;37008;52.210;21.112;2023-02-26T16:18:53;11.43;;;5.00;;
50988;SDS011;37008;52.210;21.112;2023-02-26T16:21:41;13.68;;;5.75;;
50988;SDS011;37008;52.210;21.112;2023-02-26T16:24:07;16.63;;;8.07;;
50988;SDS011;37008;52.210;21.112;2023-02-26T16:26:40;19.25;;;7.65;;
50988;SDS011;37008;52.210;21.112;2023-02-26T16:29:13;19.45;;;7.85;;
50988;SDS011;37008;52.210;21.112;2023-02-26T16:31:41;12.95;;;6.60;;
50988;SDS011;37008;52.210;21.112;2023-02-26T16:34:29;20.42;;;10.95;;
50988;SDS011;37008;52.210;21.112;2023-02-26T16:37:30;19.15;;;9.25;;
50988;SDS011;37008;52.210;21.112;2023-02-26T16:40:15;13.45;;;6.95;;
50988;SDS011;37008;52.210;21.112;2023-02-26T16:45:55;13.35;;;6.80;;
50988;SDS011;37008;52.210;21.112;2023-02-26T16:48:25;15.32;;;7.28;;
50988;SDS011;37008;52.210;21.112;2023-02-26T16:50:54;15.48;;;7.47;;
50988;SDS011;37008;52.210;21.112;2023-02-26T16:56:45;22.17;;;10.23;;
50988;SDS011;37008;52.210;21.112;2023-02-26T16:59:16;18.20;;;8.57;;
50988;SDS011;37008;52.210;21.112;2023-02-26T17:04:18;18.63;;;9.43;;
50988;SDS011;37008;52.210;21.112;2023-02-26T17:06:47;22.48;;;11.23;;
50988;SDS011;37008;52.210;21.112;2023-02-26T17:09:29;20.48;;;9.68;;
50988;SDS011;37008;52.210;21.112;2023-02-26T17:14:32;18.55;;;9.77;;
50988;SDS011;37008;52.210;21.112;2023-02-26T17:17:04;18.52;;;9.95;;
50988;SDS011;37008;52.210;21.112;2023-02-26T17:19:30;27.95;;;14.45;;
50988;SDS011;37008;52.210;21.112;2023-02-26T17:21:56;27.05;;;13.57;;
50988;SDS011;37008;52.210;21.112;2023-02-26T17:24:25;45.15;;;20.88;;
50988;SDS011;37008;52.210;21.112;2023-02-26T17:27:06;28.17;;;15.23;;
50988;SDS011;37008;52.210;21.112;2023-02-26T17:29:34;38.58;;;17.42;;
50988;SDS011;37008;52.210;21.112;2023-02-26T17:32:10;35.42;;;17.45;;
50988;SDS011;37008;52.210;21.112;2023-02-26T17:34:40;24.88;;;12.50;;
50988;SDS011;37008;52.210;21.112;2023-02-26T17:37:08;24.40;;;11.35;;
50988;SDS011;37008;52.210;21.112;2023-02-26T17:39:36;19.02;;;8.77;;
50988;SDS011;37008;52.210;21.112;2023-02-26T17:42:01;12.82;;;6.75;;
50988;SDS011;37008;52.210;21.112;2023-02-26T17:44:27;11.15;;;4.97;;
50988;SDS011;37008;52.210;21.112;2023-02-26T17:46:53;17.73;;;6.75;;